Time;durP1;ratioP1;P1;durP2;ratioP2;P2;SDS_P1;SDS_P2;PMS_P1;PMS_P2;Temp;Humidity;BMP_temperature;BMP_pressure;BME280_temperature;BME280_humidity;BME280_pressure;Samples;Min_cycle;Max_cycle;Signal;HPM_P1;HPM_P2
2022/01/29 00:02:01;;;;;;;3.75;1.80;;;3.40;99.90;;;;;;5153346;27;20764;-65
2022/01/29 00:04:28;;;;;;;6.10;2.20;;;3.40;99.90;;;;;;5152906;27;20460;-64
2022/01/29 00:06:55;;;;;;;3.00;1.50;;;3.40;99.90;;;;;;5152569;27;20425;-63
2022/01/29 00:09:22;;;;;;;3.22;1.95;;;3.40;99.90;;;;;;5152344;27;20509;-64
2022/01/29 00:11:49;;;;;;;12.40;7.07;;;3.40;99.90;;;;;;5157867;27;20471;-64
2022/01/29 00:14:16;;;;;;;7.60;4.25;;;3.30;99.90;;;;;;5158621;27;20448;-64
2022/01/29 00:16:44;;;;;;;7.30;3.45;;;3.30;99.90;;;;;;5158887;27;20456;-64
2022/01/29 00:19:11;;;;;;;4.45;2.50;;;3.30;99.90;;;;;;5159705;27;20433;-64
2022/01/29 00:21:38;;;;;;;3.80;1.75;;;3.20;99.90;;;;;;5159662;27;20440;-64
2022/01/29 00:24:06;;;;;;;3.60;2.15;;;3.20;99.90;;;;;;5158083;27;20879;-64
2022/01/29 00:26:33;;;;;;;4.47;1.92;;;3.20;99.90;;;;;;5159320;27;20719;-64
2022/01/29 00:29:04;;;;;;;3.28;2.53;;;3.20;99.90;;;;;;5158854;27;20413;-63
2022/01/29 00:31:31;;;;;;;3.80;1.90;;;3.20;99.90;;;;;;5158701;27;20443;-65
2022/01/29 00:34:00;;;;;;;3.95;2.00;;;3.10;99.90;;;;;;5159359;27;20417;-64
2022/01/29 00:36:27;;;;;;;4.20;2.40;;;3.20;99.90;;;;;;5158697;27;20837;-64
2022/01/29 00:38:54;;;;;;;5.15;1.80;;;3.20;99.90;;;;;;5159452;27;20449;-64
2022/01/29 00:41:20;;;;;;;3.70;1.50;;;3.20;99.90;;;;;;5159126;27;20440;-64
2022/01/29 00:43:47;;;;;;;3.65;1.60;;;3.20;99.90;;;;;;5157267;27;20456;-64
2022/01/29 00:46:14;;;;;;;4.47;2.03;;;3.20;99.90;;;;;;5158790;27;20429;-63
2022/01/29 00:48:41;;;;;;;4.10;1.85;;;3.20;99.90;;;;;;5158566;27;20467;-64
2022/01/29 00:51:10;;;;;;;3.72;1.65;;;3.20;99.90;;;;;;5157787;27;20469;-63
2022/01/29 00:53:37;;;;;;;4.40;1.90;;;3.20;99.90;;;;;;5158552;27;20907;-63
2022/01/29 00:56:06;;;;;;;3.03;1.40;;;3.30;99.90;;;;;;5158322;27;20463;-63
2022/01/29 00:58:33;;;;;;;3.40;1.80;;;3.30;99.90;;;;;;5158961;27;20438;-63
2022/01/29 01:01:00;;;;;;;3.40;1.60;;;3.30;99.90;;;;;;5158972;27;20808;-63
2022/01/29 01:03:27;;;;;;;3.40;1.40;;;3.20;99.90;;;;;;5157937;27;20460;-63
2022/01/29 01:05:54;;;;;;;2.22;1.25;;;3.30;99.90;;;;;;5158403;27;20425;-63
2022/01/29 01:08:22;;;;;;;2.60;1.40;;;3.20;99.90;;;;;;5158611;27;20416;-63
2022/01/29 01:10:49;;;;;;;2.67;1.30;;;3.20;99.90;;;;;;5159586;27;20470;-63
2022/01/29 01:13:16;;;;;;;2.78;1.40;;;3.30;99.90;;;;;;5158702;27;20536;-63
2022/01/29 01:15:43;;;;;;;2.70;1.30;;;3.30;99.90;;;;;;5156768;27;20835;-63
2022/01/29 01:18:10;;;;;;;2.35;1.30;;;3.40;99.90;;;;;;5157692;27;20791;-63
2022/01/29 01:20:37;;;;;;;2.25;1.23;;;3.40;99.90;;;;;;5157675;27;20460;-63
2022/01/29 01:23:04;;;;;;;2.40;1.48;;;3.50;99.90;;;;;;5156567;27;20506;-63
2022/01/29 01:25:32;;;;;;;4.68;1.58;;;3.60;99.90;;;;;;5157244;27;20468;-63
2022/01/29 01:27:59;;;;;;;2.67;1.20;;;3.70;99.90;;;;;;5157145;27;20452;-63
2022/01/29 01:30:26;;;;;;;2.47;1.15;;;3.90;99.90;;;;;;5157029;27;20482;-63
2022/01/29 01:32:53;;;;;;;3.20;1.33;;;3.90;99.90;;;;;;5155951;27;20485;-63
2022/01/29 01:35:24;;;;;;;1.90;1.10;;;3.90;99.90;;;;;;5157119;27;20447;-63
2022/01/29 01:37:55;;;;;;;2.60;1.20;;;3.90;99.90;;;;;;5157458;27;20834;-63
2022/01/29 01:40:24;;;;;;;2.40;1.10;;;3.90;99.90;;;;;;5157640;27;20432;-64
2022/01/29 01:42:58;;;;;;;2.42;1.10;;;3.90;99.90;;;;;;5157793;27;20405;-63
2022/01/29 01:45:25;;;;;;;2.93;1.37;;;4.00;99.90;;;;;;5158453;27;20420;-63
2022/01/29 01:47:52;;;;;;;3.60;1.30;;;4.00;99.90;;;;;;5158400;27;20420;-63
2022/01/29 01:50:20;;;;;;;2.50;1.20;;;4.10;99.90;;;;;;5158532;27;20448;-63
2022/01/29 01:52:47;;;;;;;2.90;1.20;;;4.30;99.90;;;;;;5158231;27;20923;-63
2022/01/29 01:55:14;;;;;;;3.17;1.20;;;4.40;99.90;;;;;;5157961;27;20429;-63
2022/01/29 01:57:41;;;;;;;1.85;1.00;;;4.40;99.90;;;;;;5158048;27;20535;-63
2022/01/29 02:00:11;;;;;;;4.32;1.40;;;4.50;99.90;;;;;;5158110;27;20457;-63
2022/01/29 02:02:38;;;;;;;2.90;1.38;;;4.50;99.90;;;;;;5157467;27;20452;-63
2022/01/29 02:05:06;;;;;;;1.60;1.10;;;4.40;99.90;;;;;;5157022;27;20780;-63
2022/01/29 02:07:34;;;;;;;2.70;1.30;;;4.20;99.90;;;;;;5157257;27;20493;-63
2022/01/29 02:10:01;;;;;;;1.60;1.10;;;4.10;99.90;;;;;;5156932;27;20444;-63
2022/01/29 02:12:31;;;;;;;3.75;1.20;;;4.00;99.90;;;;;;5156568;27;20425;-63
2022/01/29 02:15:02;;;;;;;2.60;1.08;;;3.90;99.90;;;;;;5155120;27;20486;-63
2022/01/29 02:17:31;;;;;;;2.70;1.27;;;3.80;99.90;;;;;;5155759;27;20420;-63
2022/01/29 02:19:57;;;;;;;1.80;0.90;;;3.90;99.90;;;;;;5156001;27;20473;-63
2022/01/29 02:22:26;;;;;;;1.73;1.10;;;3.90;99.90;;;;;;5156063;27;20460;-63
2022/01/29 02:24:53;;;;;;;1.90;1.00;;;3.90;99.90;;;;;;5125001;27;20530;-63
2022/01/29 02:27:20;;;;;;;3.27;1.20;;;3.90;99.90;;;;;;5116409;28;20458;-63
2022/01/29 02:29:49;;;;;;;1.73;1.10;;;3.90;99.90;;;;;;5136529;27;20785;-63
2022/01/29 02:32:16;;;;;;;3.08;1.10;;;3.90;99.90;;;;;;5136766;27;20518;-63
2022/01/29 02:34:44;;;;;;;2.75;1.00;;;3.90;99.90;;;;;;5136022;27;20468;-64
2022/01/29 02:37:11;;;;;;;1.50;1.02;;;3.90;99.90;;;;;;5136449;27;20426;-63
2022/01/29 02:39:39;;;;;;;2.70;1.30;;;3.80;99.90;;;;;;5136686;27;20421;-64
2022/01/29 02:42:07;;;;;;;2.22;1.20;;;3.80;99.90;;;;;;5135888;27;20838;-64
2022/01/29 02:44:34;;;;;;;2.70;1.10;;;3.60;99.90;;;;;;5136042;27;20492;-63
2022/01/29 02:47:15;;;;;;;3.00;1.10;;;3.60;99.90;;;;;;5136004;27;20467;-64
2022/01/29 02:49:42;;;;;;;2.95;1.20;;;3.50;99.90;;;;;;5135327;27;20418;-64
2022/01/29 02:52:09;;;;;;;2.40;1.00;;;3.60;99.90;;;;;;5135340;27;20452;-63
2022/01/29 02:54:36;;;;;;;2.05;1.10;;;3.70;99.90;;;;;;5136390;27;20483;-64
2022/01/29 02:57:05;;;;;;;2.50;1.10;;;3.80;99.90;;;;;;5136330;27;20711;-63
2022/01/29 02:59:33;;;;;;;1.70;1.00;;;3.70;99.90;;;;;;5136074;27;20703;-64
2022/01/29 03:02:00;;;;;;;2.80;1.10;;;3.70;99.90;;;;;;5135844;27;20469;-64
2022/01/29 03:04:26;;;;;;;1.98;1.10;;;3.60;99.90;;;;;;5135805;27;20466;-64
2022/01/29 03:06:53;;;;;;;2.40;1.00;;;3.50;99.90;;;;;;5149108;27;20789;-64
2022/01/29 03:09:20;;;;;;;2.30;1.10;;;3.50;99.90;;;;;;5156804;27;20452;-64
2022/01/29 03:11:47;;;;;;;1.60;1.00;;;3.30;99.90;;;;;;5156520;27;20421;-63
2022/01/29 03:14:16;;;;;;;2.00;1.10;;;3.30;99.90;;;;;;5156822;27;20464;-64
2022/01/29 03:16:43;;;;;;;1.90;1.00;;;3.20;99.90;;;;;;5140481;27;20460;-64
2022/01/29 03:19:10;;;;;;;2.30;1.00;;;3.20;99.90;;;;;;5135279;28;20458;-64
2022/01/29 03:21:37;;;;;;;2.60;1.00;;;3.20;99.90;;;;;;5135651;28;20483;-63
2022/01/29 03:24:04;;;;;;;2.50;1.10;;;3.20;99.90;;;;;;5135549;28;20427;-63
2022/01/29 03:26:31;;;;;;;2.60;1.00;;;3.20;99.90;;;;;;5136123;28;20462;-64
2022/01/29 03:28:58;;;;;;;2.65;1.00;;;3.20;99.90;;;;;;5135548;28;20441;-64
2022/01/29 03:31:29;;;;;;;2.05;1.10;;;3.20;99.90;;;;;;5136308;28;20465;-63
2022/01/29 03:33:56;;;;;;;2.70;1.00;;;3.20;99.90;;;;;;5135889;28;20423;-63
2022/01/29 03:36:23;;;;;;;1.58;1.00;;;3.20;99.90;;;;;;5135577;28;20482;-64
2022/01/29 03:38:50;;;;;;;2.10;1.30;;;3.20;99.90;;;;;;5134409;28;20445;-63
2022/01/29 03:41:17;;;;;;;1.65;0.90;;;3.10;99.90;;;;;;5136043;28;20848;-64
2022/01/29 03:43:47;;;;;;;2.50;1.00;;;3.10;99.90;;;;;;5134585;28;20422;-63
2022/01/29 03:46:14;;;;;;;1.63;0.88;;;3.20;99.90;;;;;;5137787;27;20494;-64
2022/01/29 03:48:42;;;;;;;1.60;1.00;;;3.20;99.90;;;;;;5139925;27;20478;-64
2022/01/29 03:51:10;;;;;;;1.60;0.90;;;3.20;99.90;;;;;;5140155;27;20517;-64
2022/01/29 03:53:37;;;;;;;2.10;0.90;;;3.20;99.90;;;;;;5139782;27;20813;-64
2022/01/29 03:56:04;;;;;;;2.10;0.80;;;3.30;99.90;;;;;;5140137;27;20423;-64
2022/01/29 03:58:31;;;;;;;2.50;0.90;;;3.30;99.90;;;;;;5139336;27;20473;-64
2022/01/29 04:00:57;;;;;;;1.30;0.90;;;3.30;99.90;;;;;;5139559;27;20438;-63
2022/01/29 04:03:24;;;;;;;2.00;0.90;;;3.30;99.90;;;;;;5139754;27;20448;-63
2022/01/29 04:05:53;;;;;;;2.85;0.90;;;3.30;99.90;;;;;;5137962;27;20510;-64
2022/01/29 04:08:20;;;;;;;1.88;0.80;;;3.30;99.90;;;;;;5138333;27;20817;-63
2022/01/29 04:10:48;;;;;;;1.70;0.80;;;3.20;99.90;;;;;;5138008;27;20491;-64
2022/01/29 04:13:15;;;;;;;2.55;0.90;;;3.20;99.90;;;;;;5138432;27;20859;-63
2022/01/29 04:15:42;;;;;;;1.45;0.80;;;3.20;99.90;;;;;;5137950;27;20426;-64
2022/01/29 04:18:09;;;;;;;1.20;0.70;;;3.20;99.90;;;;;;5137972;27;20433;-63
2022/01/29 04:20:36;;;;;;;1.08;0.70;;;3.20;99.90;;;;;;5138625;27;20717;-63
2022/01/29 04:23:06;;;;;;;2.00;0.90;;;3.20;99.90;;;;;;5138719;27;20821;-63
2022/01/29 04:25:33;;;;;;;1.10;0.70;;;3.10;99.90;;;;;;5138808;27;20506;-63
2022/01/29 04:28:02;;;;;;;2.05;0.70;;;3.10;99.90;;;;;;5138172;27;20789;-64
2022/01/29 04:30:30;;;;;;;1.00;0.70;;;3.20;99.90;;;;;;5138620;27;20881;-63
2022/01/29 04:33:02;;;;;;;1.10;0.70;;;3.20;99.90;;;;;;5138557;27;20425;-64
2022/01/29 04:35:29;;;;;;;1.90;0.70;;;3.20;99.90;;;;;;5138643;27;20425;-64
2022/01/29 04:37:57;;;;;;;2.10;0.80;;;3.20;99.90;;;;;;5139085;27;20429;-64
2022/01/29 04:40:25;;;;;;;1.20;0.70;;;3.20;99.90;;;;;;5139063;27;20450;-64
2022/01/29 04:42:52;;;;;;;1.33;0.70;;;3.20;99.90;;;;;;5138579;27;20419;-62
2022/01/29 04:45:19;;;;;;;1.20;0.68;;;3.30;99.90;;;;;;5138592;27;20411;-65
2022/01/29 04:47:46;;;;;;;1.10;0.70;;;3.30;99.90;;;;;;5138702;27;20426;-64
2022/01/29 04:50:13;;;;;;;1.30;0.60;;;3.30;99.90;;;;;;5139044;27;20475;-63
2022/01/29 04:52:40;;;;;;;1.40;0.80;;;3.30;99.90;;;;;;5138607;27;20491;-62
2022/01/29 04:55:08;;;;;;;1.20;0.70;;;3.40;99.90;;;;;;5138922;27;20454;-62
2022/01/29 04:57:39;;;;;;;2.00;0.70;;;3.50;99.90;;;;;;5137038;27;20453;-63
2022/01/29 05:00:09;;;;;;;1.67;0.60;;;3.50;99.90;;;;;;5139071;27;20478;-62
2022/01/29 05:02:37;;;;;;;1.80;0.70;;;3.40;99.90;;;;;;5138049;27;20491;-63
2022/01/29 05:05:04;;;;;;;1.73;0.70;;;3.50;99.90;;;;;;5138317;27;20533;-64
2022/01/29 05:07:32;;;;;;;1.00;0.60;;;3.50;99.90;;;;;;5138239;27;20466;-64
2022/01/29 05:09:58;;;;;;;1.25;0.73;;;3.50;99.90;;;;;;5138108;27;20462;-64
2022/01/29 05:12:30;;;;;;;2.80;1.10;;;3.60;99.90;;;;;;5136922;27;20426;-64
2022/01/29 05:15:14;;;;;;;2.30;0.95;;;3.60;99.90;;;;;;5138023;27;20466;-64
2022/01/29 05:28:36;;;;;;;3.13;1.30;;;3.80;99.90;;;;;;5137062;27;20875;-65
2022/01/29 05:31:05;;;;;;;3.63;1.60;;;3.90;99.90;;;;;;5136965;27;20426;-65
2022/01/29 05:33:32;;;;;;;3.77;1.40;;;3.80;99.90;;;;;;5138036;27;20513;-64
2022/01/29 05:35:59;;;;;;;2.83;1.40;;;3.70;99.90;;;;;;5157337;27;20498;-65
2022/01/29 05:38:27;;;;;;;3.70;1.40;;;3.70;99.90;;;;;;5157183;27;20819;-65
2022/01/29 05:40:54;;;;;;;3.28;1.30;;;3.80;99.90;;;;;;5157440;27;20405;-65
2022/01/29 05:43:21;;;;;;;3.78;1.65;;;3.70;99.90;;;;;;5156588;27;20436;-64
2022/01/29 05:45:48;;;;;;;2.92;1.30;;;3.50;99.90;;;;;;5156755;27;20425;-62
2022/01/29 05:48:16;;;;;;;4.18;1.73;;;3.60;99.90;;;;;;5156893;27;20409;-63
2022/01/29 05:50:45;;;;;;;2.88;1.30;;;3.70;99.90;;;;;;5157034;27;20448;-62
2022/01/29 05:53:12;;;;;;;2.17;1.33;;;3.70;99.90;;;;;;5156911;27;20611;-63
2022/01/29 05:55:39;;;;;;;3.33;1.70;;;3.70;99.90;;;;;;5157058;27;20860;-63
2022/01/29 05:58:06;;;;;;;3.55;1.60;;;3.80;99.90;;;;;;5157642;27;20447;-63
2022/01/29 06:00:33;;;;;;;3.23;1.80;;;3.80;99.90;;;;;;5158200;27;20471;-63
2022/01/29 06:03:01;;;;;;;3.57;1.80;;;3.80;99.90;;;;;;5157727;27;20440;-64
2022/01/29 06:05:30;;;;;;;4.65;1.70;;;3.70;99.90;;;;;;5157221;27;20408;-62
2022/01/29 06:07:57;;;;;;;3.60;1.70;;;3.70;99.90;;;;;;5157733;27;20493;-63
2022/01/29 06:10:24;;;;;;;4.80;1.90;;;3.90;99.90;;;;;;5157833;27;20469;-63
2022/01/29 06:13:02;;;;;;;3.45;1.77;;;4.00;99.90;;;;;;5158007;27;20780;-63
2022/01/29 06:15:33;;;;;;;2.50;1.60;;;3.90;99.90;;;;;;5157366;27;20827;-63
2022/01/29 06:18:00;;;;;;;3.33;1.80;;;3.70;99.90;;;;;;5157743;27;20420;-63
2022/01/29 06:20:29;;;;;;;4.15;1.65;;;3.50;99.90;;;;;;5158052;27;20413;-63
2022/01/29 06:22:56;;;;;;;2.70;1.50;;;3.40;99.90;;;;;;5156896;27;20492;-62
2022/01/29 06:25:23;;;;;;;3.33;1.60;;;3.30;99.90;;;;;;5156625;27;20908;-62
2022/01/29 06:27:50;;;;;;;2.53;1.50;;;3.20;99.90;;;;;;5157599;27;20457;-63
2022/01/29 06:30:17;;;;;;;2.72;1.80;;;3.30;99.90;;;;;;5157769;27;20416;-60
2022/01/29 06:32:44;;;;;;;3.50;1.63;;;3.50;99.90;;;;;;5157169;27;20501;-60
2022/01/29 06:35:11;;;;;;;3.10;1.60;;;3.40;99.90;;;;;;5156467;27;20863;-60
2022/01/29 06:37:40;;;;;;;4.23;2.10;;;3.40;99.90;;;;;;5157237;27;20465;-61
2022/01/29 06:40:08;;;;;;;5.22;2.30;;;3.50;99.90;;;;;;5156702;27;20449;-62
2022/01/29 06:42:35;;;;;;;4.20;2.15;;;3.60;99.90;;;;;;5157046;27;20465;-61
2022/01/29 06:45:03;;;;;;;4.00;1.85;;;3.60;99.90;;;;;;5154038;27;20418;-62
2022/01/29 06:47:30;;;;;;;3.80;2.00;;;3.60;99.90;;;;;;5140485;27;20537;-62
2022/01/29 06:49:57;;;;;;;2.90;1.70;;;3.70;99.90;;;;;;5144038;27;20534;-62
2022/01/29 06:52:24;;;;;;;3.45;1.70;;;4.10;99.90;;;;;;5146901;27;20442;-62
2022/01/29 06:54:52;;;;;;;3.30;1.77;;;3.90;99.90;;;;;;5140466;27;20462;-62
2022/01/29 06:57:19;;;;;;;3.33;1.47;;;4.30;99.90;;;;;;5150040;27;20445;-62
2022/01/29 06:59:46;;;;;;;3.53;1.70;;;4.60;99.90;;;;;;5138369;27;20502;-62
2022/01/29 07:02:13;;;;;;;5.28;1.98;;;4.90;99.90;;;;;;5146829;27;20446;-61
2022/01/29 07:04:41;;;;;;;4.75;2.25;;;4.70;99.90;;;;;;5141612;27;20446;-62
2022/01/29 07:07:07;;;;;;;3.92;1.92;;;4.40;99.90;;;;;;5147060;27;20421;-61
2022/01/29 07:09:34;;;;;;;3.60;2.03;;;4.30;99.90;;;;;;5140346;27;20458;-61
2022/01/29 07:12:09;;;;;;;3.30;1.50;;;4.10;99.90;;;;;;5143516;27;20422;-62
2022/01/29 07:14:39;;;;;;;2.50;1.40;;;3.80;99.90;;;;;;5142277;27;20446;-64
2022/01/29 07:17:09;;;;;;;3.80;1.50;;;3.60;99.90;;;;;;5140131;27;20434;-64
2022/01/29 07:19:36;;;;;;;3.80;1.45;;;3.60;99.90;;;;;;5139799;27;20685;-64
2022/01/29 07:22:04;;;;;;;2.88;1.40;;;3.40;99.90;;;;;;5153953;27;20409;-64
2022/01/29 07:24:31;;;;;;;3.67;1.40;;;3.30;99.90;;;;;;5144197;27;20442;-63
2022/01/29 07:26:57;;;;;;;2.88;1.70;;;3.30;99.90;;;;;;5132630;28;20518;-63
2022/01/29 07:29:26;;;;;;;2.97;1.20;;;3.20;99.90;;;;;;5133888;28;20777;-63
2022/01/29 07:31:53;;;;;;;1.90;1.10;;;3.20;99.90;;;;;;5134207;28;20427;-64
2022/01/29 07:34:20;;;;;;;2.57;1.20;;;3.30;99.90;;;;;;5133694;28;20900;-63
2022/01/29 07:36:47;;;;;;;2.10;1.30;;;3.30;99.90;;;;;;5133809;28;20472;-64
2022/01/29 07:39:14;;;;;;;2.42;1.08;;;3.20;99.90;;;;;;5134131;28;20438;-64
2022/01/29 07:41:41;;;;;;;3.50;1.00;;;3.20;99.90;;;;;;5142978;27;20781;-64
2022/01/29 07:44:08;;;;;;;3.00;1.00;;;3.20;99.90;;;;;;5154551;27;20788;-63
2022/01/29 07:46:36;;;;;;;1.90;1.10;;;3.20;99.90;;;;;;5154601;27;20412;-64
2022/01/29 07:49:03;;;;;;;1.52;0.98;;;3.30;99.90;;;;;;5155271;27;20697;-64
2022/01/29 07:51:30;;;;;;;1.30;0.90;;;3.20;99.90;;;;;;5155170;27;20748;-64
2022/01/29 07:53:57;;;;;;;1.48;0.80;;;3.30;99.90;;;;;;5153017;27;20464;-64
2022/01/29 07:56:24;;;;;;;1.30;0.80;;;3.50;99.90;;;;;;5152869;27;20438;-64
2022/01/29 07:58:52;;;;;;;1.20;0.80;;;3.60;99.90;;;;;;5135280;27;20461;-64
2022/01/29 08:01:21;;;;;;;1.00;0.70;;;3.60;99.90;;;;;;5131729;28;20841;-64
2022/01/29 08:03:52;;;;;;;1.70;0.80;;;3.60;99.90;;;;;;5132101;28;20503;-65
2022/01/29 08:06:22;;;;;;;3.13;0.80;;;3.60;99.90;;;;;;5132255;28;20466;-64
2022/01/29 08:08:52;;;;;;;1.40;0.70;;;3.60;99.90;;;;;;5135098;28;20425;-62
2022/01/29 08:11:19;;;;;;;2.17;0.73;;;3.60;99.90;;;;;;5115394;28;20493;-62
2022/01/29 08:13:47;;;;;;;1.90;0.70;;;3.60;99.90;;;;;;5115191;28;20493;-64
2022/01/29 08:16:14;;;;;;;1.30;0.70;;;3.60;99.90;;;;;;5117958;28;20420;-64
2022/01/29 08:18:43;;;;;;;2.95;0.98;;;3.60;99.90;;;;;;5121919;28;20528;-65
2022/01/29 08:21:12;;;;;;;1.90;0.75;;;3.60;99.90;;;;;;5113881;28;20432;-63
2022/01/29 08:23:39;;;;;;;1.30;0.70;;;3.70;99.90;;;;;;5115960;28;20424;-65
2022/01/29 08:26:06;;;;;;;1.70;0.80;;;3.70;99.90;;;;;;5132299;28;20461;-62
2022/01/29 08:28:33;;;;;;;1.20;0.80;;;3.70;99.90;;;;;;5134448;28;20435;-62
2022/01/29 08:31:01;;;;;;;1.90;0.80;;;3.80;99.90;;;;;;5125139;28;20428;-62
2022/01/29 08:33:28;;;;;;;1.10;0.70;;;3.90;99.90;;;;;;5116717;27;20420;-62
2022/01/29 08:35:56;;;;;;;1.38;0.70;;;4.00;99.90;;;;;;5123898;27;20435;-62
2022/01/29 08:38:26;;;;;;;1.80;0.77;;;4.10;99.90;;;;;;5130208;27;20466;-62
2022/01/29 08:40:54;;;;;;;1.08;0.70;;;4.20;99.90;;;;;;5128622;27;20427;-62
2022/01/29 08:43:22;;;;;;;2.30;0.80;;;4.40;99.90;;;;;;5135644;27;20434;-60
2022/01/29 08:45:51;;;;;;;1.08;0.70;;;4.40;99.90;;;;;;5134847;27;20725;-61
2022/01/29 08:48:18;;;;;;;1.60;0.60;;;4.60;99.90;;;;;;5133652;27;20441;-61
2022/01/29 08:50:45;;;;;;;1.27;0.60;;;4.70;99.90;;;;;;5134655;27;20430;-62
2022/01/29 08:53:12;;;;;;;0.90;0.60;;;4.70;99.90;;;;;;5136165;27;20873;-62
2022/01/29 08:55:41;;;;;;;1.38;0.60;;;4.80;99.90;;;;;;5127982;27;20428;-62
2022/01/29 08:58:08;;;;;;;1.40;0.60;;;4.90;99.90;;;;;;5126148;27;20906;-64
2022/01/29 09:00:36;;;;;;;1.73;0.70;;;5.00;99.90;;;;;;5127321;27;20434;-61
2022/01/29 09:03:03;;;;;;;1.50;0.70;;;5.10;99.90;;;;;;5117975;27;20459;-60
2022/01/29 09:05:30;;;;;;;1.10;0.70;;;5.20;99.90;;;;;;5131174;27;20452;-62
2022/01/29 09:07:58;;;;;;;2.80;0.80;;;5.20;99.90;;;;;;5117335;28;20420;-62
2022/01/29 09:10:26;;;;;;;1.08;0.75;;;5.20;99.90;;;;;;5119614;27;20479;-61
2022/01/29 09:12:54;;;;;;;1.08;0.73;;;5.20;99.90;;;;;;5118144;27;20747;-61
2022/01/29 09:15:21;;;;;;;2.08;0.93;;;5.20;99.90;;;;;;5115370;28;20451;-61
2022/01/29 09:17:48;;;;;;;1.30;0.77;;;5.30;99.90;;;;;;5127285;27;20431;-61
2022/01/29 09:20:16;;;;;;;1.50;0.80;;;5.30;99.90;;;;;;5126984;27;20450;-62
2022/01/29 09:22:43;;;;;;;1.50;0.80;;;5.30;99.90;;;;;;5135763;27;20431;-61
2022/01/29 09:25:10;;;;;;;1.60;0.75;;;5.30;99.90;;;;;;5129968;27;20418;-61
2022/01/29 09:27:37;;;;;;;1.92;0.80;;;5.40;99.90;;;;;;5132582;27;20795;-62
2022/01/29 09:30:08;;;;;;;1.20;0.70;;;5.40;99.90;;;;;;5124088;27;20433;-61
2022/01/29 09:32:35;;;;;;;1.17;0.80;;;5.40;99.90;;;;;;5126311;27;20498;-60
2022/01/29 09:35:02;;;;;;;2.05;0.80;;;5.50;99.90;;;;;;5136649;27;20463;-61
2022/01/29 09:37:30;;;;;;;1.50;0.80;;;5.30;99.90;;;;;;5135322;27;20422;-60
2022/01/29 09:39:57;;;;;;;2.22;0.80;;;5.30;99.90;;;;;;5134773;27;20465;-60
2022/01/29 09:42:24;;;;;;;1.20;0.70;;;5.40;99.90;;;;;;5132411;27;20443;-60
2022/01/29 09:44:52;;;;;;;1.30;0.70;;;5.40;99.90;;;;;;5134314;27;20796;-60
2022/01/29 09:47:23;;;;;;;1.17;0.70;;;5.50;99.90;;;;;;5121191;27;20889;-60
2022/01/29 09:49:51;;;;;;;2.80;0.80;;;5.80;99.90;;;;;;5130829;27;20419;-61
2022/01/29 09:52:18;;;;;;;1.20;0.70;;;5.90;99.90;;;;;;5127158;27;20437;-61
2022/01/29 09:54:51;;;;;;;2.33;0.70;;;5.90;99.90;;;;;;5128725;27;20423;-60
2022/01/29 09:57:18;;;;;;;2.30;0.80;;;5.80;99.90;;;;;;5119350;27;20462;-61
2022/01/29 09:59:46;;;;;;;1.30;0.70;;;5.80;99.90;;;;;;5121763;27;20442;-60
2022/01/29 10:02:18;;;;;;;1.10;0.60;;;5.90;99.90;;;;;;5130063;27;20509;-61
2022/01/29 10:04:48;;;;;;;1.40;0.80;;;5.90;99.90;;;;;;5124167;27;20470;-61
2022/01/29 10:07:17;;;;;;;1.30;0.80;;;5.90;99.90;;;;;;5118552;27;20442;-61
2022/01/29 10:09:44;;;;;;;1.67;0.85;;;6.00;99.90;;;;;;5134915;27;20729;-61
2022/01/29 10:12:22;;;;;;;1.30;0.80;;;6.10;99.90;;;;;;5134423;27;20487;-61
2022/01/29 10:14:52;;;;;;;1.20;0.80;;;6.30;99.90;;;;;;5128749;27;20540;-61
2022/01/29 10:17:38;;;;;;;1.40;0.70;;;6.40;99.90;;;;;;5122151;27;20689;-61
2022/01/29 10:20:13;;;;;;;2.10;0.80;;;6.50;99.90;;;;;;5130729;27;20842;-61
2022/01/29 10:22:41;;;;;;;1.50;0.70;;;6.60;99.90;;;;;;5126086;27;20446;-61
2022/01/29 10:25:12;;;;;;;1.70;0.70;;;6.60;99.90;;;;;;5123075;27;20882;-61
2022/01/29 10:27:40;;;;;;;1.13;0.70;;;6.50;99.90;;;;;;5118910;27;20490;-61
2022/01/29 10:30:10;;;;;;;1.58;0.70;;;6.60;99.90;;;;;;5127037;27;20473;-61
2022/01/29 10:32:37;;;;;;;2.63;0.90;;;6.70;99.90;;;;;;5127499;27;20425;-61
2022/01/29 10:35:05;;;;;;;1.83;0.70;;;6.80;99.90;;;;;;5133928;27;20422;-61
2022/01/29 10:37:33;;;;;;;1.50;0.80;;;7.00;99.90;;;;;;5130824;27;20777;-61
2022/01/29 10:40:02;;;;;;;1.50;0.80;;;7.10;99.90;;;;;;5126319;27;20811;-61
2022/01/29 10:42:32;;;;;;;1.65;0.73;;;7.10;99.90;;;;;;5131237;27;20498;-61
2022/01/29 10:45:02;;;;;;;1.13;0.70;;;7.10;99.90;;;;;;5127756;27;20419;-61
2022/01/29 10:47:30;;;;;;;1.50;0.60;;;7.30;99.90;;;;;;5127647;27;20517;-61
2022/01/29 10:49:59;;;;;;;1.00;0.60;;;7.60;99.90;;;;;;5125113;27;20741;-62
2022/01/29 10:52:29;;;;;;;1.00;0.60;;;7.70;99.90;;;;;;5126258;27;20432;-61
2022/01/29 10:55:03;;;;;;;1.00;0.70;;;7.80;99.90;;;;;;5126184;27;20450;-62
2022/01/29 10:57:35;;;;;;;1.50;0.60;;;7.60;99.90;;;;;;5123153;27;20870;-60
2022/01/29 11:00:06;;;;;;;0.90;0.50;;;7.90;99.90;;;;;;5124305;27;20857;-62
2022/01/29 11:02:33;;;;;;;1.00;0.50;;;8.10;99.90;;;;;;5124526;27;20458;-66
2022/01/29 11:05:02;;;;;;;2.13;0.80;;;8.10;99.90;;;;;;5129924;27;20419;-64
2022/01/29 11:07:30;;;;;;;1.98;0.80;;;7.90;99.90;;;;;;5132494;27;20434;-63
2022/01/29 11:10:03;;;;;;;1.52;0.60;;;8.00;99.90;;;;;;5127360;27;20882;-65
2022/01/29 11:12:31;;;;;;;1.30;0.50;;;8.00;99.90;;;;;;5134245;27;20422;-65
2022/01/29 11:15:01;;;;;;;0.80;0.55;;;8.00;99.90;;;;;;5132220;27;20513;-67
2022/01/29 11:17:31;;;;;;;1.00;0.50;;;7.80;99.90;;;;;;5115261;28;20438;-64
2022/01/29 11:19:59;;;;;;;0.60;0.45;;;7.70;99.90;;;;;;5125031;27;20418;-63
2022/01/29 11:22:28;;;;;;;0.93;0.50;;;7.90;99.90;;;;;;5130905;28;20438;-63
2022/01/29 11:24:59;;;;;;;1.40;0.40;;;7.90;99.90;;;;;;5129232;28;20426;-64
2022/01/29 11:27:28;;;;;;;0.70;0.40;;;8.00;99.90;;;;;;5120643;28;20508;-63
2022/01/29 11:30:11;;;;;;;0.60;0.40;;;7.90;99.90;;;;;;5129330;28;20517;-64
2022/01/29 11:32:41;;;;;;;0.60;0.40;;;7.70;99.90;;;;;;5132180;28;20430;-67
2022/01/29 11:35:19;;;;;;;1.30;0.40;;;7.60;99.90;;;;;;5127649;28;20509;-65
2022/01/29 11:37:49;;;;;;;0.60;0.40;;;7.80;99.90;;;;;;5135054;28;20446;-64
2022/01/29 11:40:25;;;;;;;0.90;0.50;;;7.70;99.90;;;;;;5125935;28;20862;-64
2022/01/29 11:43:03;;;;;;;0.70;0.40;;;7.60;99.90;;;;;;5114087;28;20477;-66
2022/01/29 11:45:58;;;;;;;1.60;0.50;;;7.50;99.90;;;;;;5125479;28;20423;-67
2022/01/29 11:48:53;;;;;;;0.70;0.40;;;7.60;99.90;;;;;;5113978;28;20441;-63
2022/01/29 11:51:48;;;;;;;0.60;0.30;;;7.50;99.90;;;;;;5114098;28;20733;-64
2022/01/29 11:54:21;;;;;;;2.45;0.45;;;7.50;99.90;;;;;;5079966;28;20514;-61
2022/01/29 11:56:49;;;;;;;0.60;0.30;;;7.50;99.90;;;;;;5133934;28;20433;-61
2022/01/29 11:59:30;;;;;;;2.25;0.40;;;7.50;99.90;;;;;;5133023;28;20530;-61
2022/01/29 12:02:01;;;;;;;1.90;0.30;;;7.70;99.90;;;;;;5124334;28;20438;-61
2022/01/29 12:05:05;;;;;;;0.70;0.40;;;7.90;99.90;;;;;;5118743;28;20845;-62
2022/01/29 12:07:35;;;;;;;1.33;0.40;;;7.60;99.90;;;;;;5124466;27;20521;-60
2022/01/29 12:10:10;;;;;;;1.80;0.30;;;7.40;99.90;;;;;;5132168;27;20427;-61
2022/01/29 12:12:38;;;;;;;0.70;0.40;;;7.40;99.90;;;;;;5124759;27;20450;-62
2022/01/29 12:15:37;;;;;;;0.60;0.30;;;7.40;99.90;;;;;;5118820;27;20444;-61
2022/01/29 12:18:29;;;;;;;1.00;0.40;;;7.50;99.90;;;;;;5131946;27;20506;-61
2022/01/29 12:20:56;;;;;;;1.05;0.40;;;7.40;99.90;;;;;;5137804;27;20494;-61
2022/01/29 12:23:23;;;;;;;0.70;0.40;;;7.40;99.90;;;;;;5137599;27;20775;-60
2022/01/29 12:25:56;;;;;;;0.60;0.40;;;7.40;99.90;;;;;;5129090;27;20807;-61
2022/01/29 12:28:23;;;;;;;0.70;0.40;;;7.30;99.90;;;;;;5126439;27;20457;-61
2022/01/29 12:30:50;;;;;;;0.90;0.40;;;7.20;99.90;;;;;;5136782;27;20442;-62
2022/01/29 12:33:20;;;;;;;0.70;0.40;;;7.40;99.90;;;;;;5122247;27;20430;-62
2022/01/29 12:35:50;;;;;;;1.50;0.50;;;7.30;99.90;;;;;;5132282;27;20428;-61
2022/01/29 12:38:19;;;;;;;1.20;0.50;;;7.40;99.90;;;;;;5136357;27;20427;-63
2022/01/29 12:40:55;;;;;;;0.60;0.30;;;7.60;99.90;;;;;;5133434;27;20489;-62
2022/01/29 12:43:24;;;;;;;0.55;0.40;;;7.60;99.90;;;;;;5131081;27;20875;-62
2022/01/29 12:45:54;;;;;;;1.50;0.40;;;7.60;99.90;;;;;;5132916;27;20494;-62
2022/01/29 12:48:23;;;;;;;0.80;0.40;;;7.40;99.90;;;;;;5132018;27;20517;-63
2022/01/29 12:50:49;;;;;;;0.70;0.40;;;7.40;99.90;;;;;;5133413;27;20495;-63
2022/01/29 12:53:19;;;;;;;0.50;0.30;;;7.20;99.90;;;;;;5121317;27;20509;-63
2022/01/29 12:56:00;;;;;;;0.70;0.40;;;7.20;99.90;;;;;;5132587;27;20433;-64
2022/01/29 12:58:28;;;;;;;1.00;0.50;;;7.10;99.90;;;;;;5130977;27;20426;-63
2022/01/29 13:01:06;;;;;;;0.80;0.40;;;7.00;99.90;;;;;;5133533;27;20925;-63
2022/01/29 13:03:34;;;;;;;0.85;0.50;;;7.00;99.90;;;;;;5125880;27;20499;-63
2022/01/29 13:06:06;;;;;;;0.60;0.40;;;7.00;99.90;;;;;;5132518;27;20898;-62
2022/01/29 13:08:33;;;;;;;0.70;0.40;;;7.00;99.90;;;;;;5133941;27;20434;-63
2022/01/29 13:11:01;;;;;;;1.50;0.50;;;7.10;99.90;;;;;;5123174;27;20998;-65
2022/01/29 13:13:29;;;;;;;0.70;0.40;;;7.10;99.90;;;;;;5134630;27;20526;-63
2022/01/29 13:15:56;;;;;;;0.90;0.50;;;7.00;99.90;;;;;;5135099;27;20641;-63
2022/01/29 13:18:24;;;;;;;0.80;0.40;;;7.00;99.90;;;;;;5133529;27;20841;-63